Time;durP1;ratioP1;P1;durP2;ratioP2;P2;SDS_P1;SDS_P2;PMS_P1;PMS_P2;Temp;Humidity;BMP_temperature;BMP_pressure;BME280_temperature;BME280_humidity;BME280_pressure;Samples;Min_cycle;Max_cycle;Signal;HPM_P1;HPM_P2
2021/12/03 00:01:19;;;;;;;16.62;5.12;;;;;;;-1.90;100.00;97382.66;4414718;32;20101;-70
2021/12/03 00:03:46;;;;;;;7.65;3.17;;;;;;;-1.83;100.00;97386.06;4412018;32;20068;-69
2021/12/03 00:06:14;;;;;;;8.55;4.00;;;;;;;-2.07;100.00;97344.59;4413851;32;20427;-69
2021/12/03 00:08:41;;;;;;;12.45;3.97;;;;;;;-1.86;100.00;97389.09;4410510;32;20047;-70
2021/12/03 00:11:11;;;;;;;12.30;4.65;;;;;;;-1.75;100.00;97384.19;4412555;32;20054;-69
2021/12/03 00:13:38;;;;;;;14.20;4.12;;;;;;;-1.79;100.00;97393.56;4413578;32;20452;-70
2021/12/03 00:16:05;;;;;;;11.63;4.32;;;;;;;-1.92;100.00;97362.75;4412805;32;20065;-70
2021/12/03 00:18:33;;;;;;;12.02;4.43;;;;;;;-1.97;100.00;97360.75;4415983;32;20039;-70
2021/12/03 00:21:03;;;;;;;11.15;4.03;;;;;;;-1.75;100.00;97397.41;4416367;32;20371;-70
2021/12/03 00:23:31;;;;;;;13.45;4.65;;;;;;;-1.61;100.00;97417.44;4418600;32;20076;-70
2021/12/03 00:26:00;;;;;;;12.63;4.20;;;;;;;-1.63;100.00;97418.63;4418125;32;20364;-70
2021/12/03 00:28:28;;;;;;;11.25;3.55;;;;;;;-1.56;100.00;97404.41;4418461;32;20060;-69
2021/12/03 00:30:56;;;;;;;9.77;3.87;;;;;;;-1.53;100.00;97430.38;4416445;32;20376;-70
2021/12/03 00:33:23;;;;;;;12.80;4.22;;;;;;;-1.53;100.00;97435.66;4418580;32;20092;-70
2021/12/03 00:35:51;;;;;;;10.93;4.10;;;;;;;-1.60;100.00;97419.03;4416545;32;20081;-70
2021/12/03 00:38:19;;;;;;;13.88;3.85;;;;;;;-1.83;100.00;97386.06;4417079;32;20435;-70
2021/12/03 00:40:46;;;;;;;12.30;4.35;;;;;;;-1.74;100.00;97397.19;4416279;32;20478;-71
2021/12/03 00:43:13;;;;;;;9.07;4.18;;;;;;;-1.73;100.00;97401.44;4403991;32;20046;-71
2021/12/03 00:45:42;;;;;;;10.30;3.45;;;;;;;-1.78;100.00;97397.81;4418392;32;20027;-71
2021/12/03 00:48:09;;;;;;;11.30;3.70;;;;;;;-1.69;100.00;97397.34;4417406;32;20042;-70
2021/12/03 00:50:36;;;;;;;7.15;3.33;;;;;;;-1.65;100.00;97395.09;4416907;32;20124;-70
2021/12/03 00:53:02;;;;;;;11.57;3.62;;;;;;;-1.71;100.00;97401.22;4402730;32;20056;-70
2021/12/03 00:55:30;;;;;;;13.32;3.67;;;;;;;-1.69;100.00;97388.63;4417423;32;20076;-70
2021/12/03 00:57:57;;;;;;;8.55;3.70;;;;;;;-1.65;100.00;97389.81;4419445;32;20038;-69
2021/12/03 01:00:29;;;;;;;11.70;3.85;;;;;;;-1.68;100.00;97396.31;4418814;32;20065;-70
2021/12/03 01:02:58;;;;;;;11.10;4.15;;;;;;;-1.41;100.00;97448.19;4416449;32;20039;-70
2021/12/03 01:05:26;;;;;;;9.80;4.07;;;;;;;-1.60;100.00;97399.75;4417838;32;20042;-70
2021/12/03 01:07:53;;;;;;;22.60;4.43;;;;;;;-1.52;100.00;97405.56;4417613;32;20038;-70
2021/12/03 01:10:21;;;;;;;10.05;3.90;;;;;;;-1.59;100.00;97418.00;4416921;32;20419;-70
2021/12/03 01:12:47;;;;;;;14.75;4.50;;;;;;;-1.34;100.00;97454.22;4413518;32;20065;-70
2021/12/03 01:15:20;;;;;;;5.65;2.87;;;;;;;-1.36;100.00;97451.00;4417703;32;20119;-70
2021/12/03 01:17:47;;;;;;;4.65;1.87;;;;;;;-1.59;100.00;97415.38;4417932;32;20367;-70
2021/12/03 01:20:14;;;;;;;5.90;2.87;;;;;;;-1.30;100.00;97472.06;4417600;32;20127;-69
2021/12/03 01:22:43;;;;;;;9.85;3.67;;;;;;;-1.30;100.00;97466.00;4415625;32;20037;-70
2021/12/03 01:25:11;;;;;;;11.80;3.50;;;;;;;-1.26;100.00;97469.84;4417787;32;20889;-69
2021/12/03 01:27:47;;;;;;;8.52;3.92;;;;;;;-1.21;100.00;97472.66;4417659;32;20064;-70
2021/12/03 01:30:17;;;;;;;14.60;3.55;;;;;;;-1.18;100.00;97471.41;4415059;32;20070;-70
2021/12/03 01:32:44;;;;;;;12.35;3.28;;;;;;;-1.27;100.00;97470.84;4402170;32;20046;-70
2021/12/03 01:35:12;;;;;;;10.48;3.58;;;;;;;-1.37;100.00;97458.13;4414284;32;20406;-70
2021/12/03 01:37:40;;;;;;;7.05;3.65;;;;;;;-1.55;100.00;97427.13;4417502;32;20056;-70
2021/12/03 01:40:10;;;;;;;11.85;4.15;;;;;;;-1.28;100.00;97477.16;4417672;32;20433;-70
2021/12/03 01:42:38;;;;;;;8.93;4.15;;;;;;;-1.58;100.00;97427.56;4414401;32;20375;-70
2021/12/03 01:45:07;;;;;;;8.45;3.55;;;;;;;-1.31;100.00;97480.22;4417544;32;20042;-71
2021/12/03 01:47:34;;;;;;;6.62;3.25;;;;;;;-1.37;100.00;97491.59;4416929;32;20038;-71
2021/12/03 01:50:01;;;;;;;9.50;4.30;;;;;;;-1.82;100.00;97421.16;4417494;32;20061;-71
2021/12/03 01:52:28;;;;;;;8.32;3.42;;;;;;;-1.35;100.00;97489.59;4415528;32;20054;-71
2021/12/03 01:54:54;;;;;;;12.13;3.53;;;;;;;-1.63;100.00;97461.66;4404848;32;20043;-70
2021/12/03 01:57:21;;;;;;;8.90;3.83;;;;;;;-1.32;100.00;97494.44;4402880;32;20049;-71
2021/12/03 01:59:48;;;;;;;11.68;4.62;;;;;;;-1.31;100.00;97506.63;4413854;32;20046;-70
2021/12/03 02:02:14;;;;;;;11.48;3.92;;;;;;;-1.45;100.00;97482.12;4413093;32;20103;-71
2021/12/03 02:04:41;;;;;;;9.27;2.80;;;;;;;-1.39;100.00;97520.84;4401848;32;20035;-71
2021/12/03 02:07:07;;;;;;;11.30;4.03;;;;;;;-1.37;100.00;97518.00;4400414;32;20093;-71
2021/12/03 02:09:34;;;;;;;12.48;4.05;;;;;;;-1.39;100.00;97504.22;4407411;32;20361;-71
2021/12/03 02:12:00;;;;;;;10.45;3.85;;;;;;;-1.23;100.00;97524.84;4414346;32;20123;-71
2021/12/03 02:14:27;;;;;;;13.48;4.53;;;;;;;-1.52;100.00;97479.50;4410402;32;20043;-71
2021/12/03 02:16:53;;;;;;;10.98;3.47;;;;;;;-1.27;100.00;97536.06;4401382;32;20072;-71
2021/12/03 02:19:20;;;;;;;9.90;3.95;;;;;;;-1.48;100.00;97501.81;4401852;32;20433;-71
2021/12/03 02:21:47;;;;;;;7.20;3.92;;;;;;;-1.31;100.00;97533.03;4401555;32;20157;-71
2021/12/03 02:24:14;;;;;;;10.20;3.78;;;;;;;-1.46;100.00;97499.78;4404716;32;20051;-70
2021/12/03 02:26:42;;;;;;;10.23;3.95;;;;;;;-1.37;100.00;97512.72;4399480;32;20069;-71
2021/12/03 02:29:08;;;;;;;11.10;3.75;;;;;;;-1.19;100.00;97549.84;4403358;32;20735;-70
2021/12/03 02:31:35;;;;;;;13.35;4.05;;;;;;;-1.20;100.00;97547.41;4415462;32;20062;-71
2021/12/03 02:34:02;;;;;;;7.53;3.67;;;;;;;-1.28;100.00;97572.22;4414923;32;20035;-70
2021/12/03 02:36:29;;;;;;;16.60;3.67;;;;;;;-1.30;100.00;97566.34;4414938;32;20046;-71
2021/12/03 02:39:03;;;;;;;9.30;3.92;;;;;;;-1.34;100.00;97570.41;4414274;32;20458;-70
2021/12/03 02:41:30;;;;;;;7.87;3.33;;;;;;;-1.41;100.00;97577.56;4416087;32;20060;-71
2021/12/03 02:43:57;;;;;;;8.00;3.70;;;;;;;-1.38;100.00;97574.50;4416580;32;20053;-70
2021/12/03 02:46:24;;;;;;;12.20;3.35;;;;;;;-1.41;100.00;97572.28;4415046;32;20068;-71
2021/12/03 02:48:51;;;;;;;6.70;3.42;;;;;;;-1.43;100.00;97582.25;4411422;32;20047;-71
2021/12/03 02:51:17;;;;;;;8.38;3.50;;;;;;;-1.55;100.00;97542.47;4404007;32;20042;-70
2021/12/03 02:53:43;;;;;;;6.15;3.08;;;;;;;-1.41;100.00;97590.75;4401102;32;20112;-71
2021/12/03 02:56:11;;;;;;;6.57;3.42;;;;;;;-1.51;100.00;97559.50;4401428;32;20035;-70
2021/12/03 02:58:43;;;;;;;9.15;3.72;;;;;;;-1.47;100.00;97581.81;4401460;32;20060;-71
2021/12/03 03:01:10;;;;;;;11.30;4.05;;;;;;;-1.37;100.00;97597.22;4416700;32;20068;-71
2021/12/03 03:03:37;;;;;;;14.30;3.30;;;;;;;-1.33;100.00;97611.66;4416605;32;20068;-70
2021/12/03 03:06:07;;;;;;;7.35;3.03;;;;;;;-1.34;100.00;97621.41;4416432;32;20081;-70
2021/12/03 03:08:35;;;;;;;7.95;4.18;;;;;;;-1.34;100.00;97618.78;4416785;32;20073;-71
2021/12/03 03:11:05;;;;;;;8.20;3.00;;;;;;;-1.34;100.00;97613.50;4413369;32;20412;-71
2021/12/03 03:13:31;;;;;;;7.32;3.15;;;;;;;-1.37;100.00;97613.91;4415951;32;20074;-71
2021/12/03 03:15:58;;;;;;;10.43;3.65;;;;;;;-1.66;100.00;97583.50;4406643;32;20035;-71
2021/12/03 03:18:27;;;;;;;4.75;3.22;;;;;;;-1.30;100.00;97637.66;4416634;32;20056;-70
2021/12/03 03:20:58;;;;;;;7.00;3.08;;;;;;;-1.48;100.00;97611.91;4403874;32;20101;-71
2021/12/03 03:23:25;;;;;;;5.18;2.83;;;;;;;-1.27;100.00;97639.06;4401193;32;20231;-70
2021/12/03 03:25:53;;;;;;;4.68;2.53;;;;;;;-1.26;100.00;97646.78;4400809;32;20429;-72
2021/12/03 03:28:21;;;;;;;3.05;2.72;;;;;;;-1.43;100.00;97635.84;4402090;32;20398;-70
2021/12/03 03:30:49;;;;;;;8.65;3.15;;;;;;;-1.30;100.00;97664.84;4402860;32;20039;-70
2021/12/03 03:33:17;;;;;;;7.30;3.00;;;;;;;-1.25;100.00;97647.59;4397710;32;20364;-70
2021/12/03 03:35:44;;;;;;;8.07;3.58;;;;;;;-1.31;100.00;97638.66;4401043;32;20058;-70
2021/12/03 03:38:11;;;;;;;3.90;2.60;;;;;;;-1.48;100.00;97607.44;4405443;32;20378;-70
2021/12/03 03:40:39;;;;;;;5.75;2.83;;;;;;;-1.41;100.00;97614.53;4413362;32;20046;-70
2021/12/03 03:43:06;;;;;;;4.20;2.95;;;;;;;-1.42;100.00;97605.78;4415348;32;20057;-70
2021/12/03 03:45:34;;;;;;;9.50;3.25;;;;;;;-1.18;100.00;97649.19;4413971;32;20077;-71
2021/12/03 03:48:01;;;;;;;6.78;2.75;;;;;;;-1.52;100.00;97608.03;4416170;32;20062;-70
2021/12/03 03:50:28;;;;;;;6.00;3.03;;;;;;;-1.30;100.00;97661.41;4406187;32;20088;-70
2021/12/03 03:52:56;;;;;;;11.12;3.28;;;;;;;-1.21;100.00;97665.47;4401910;32;20051;-70
2021/12/03 03:55:24;;;;;;;5.47;3.10;;;;;;;-1.08;100.00;97685.75;4403639;32;20051;-70
2021/12/03 03:57:53;;;;;;;5.68;2.92;;;;;;;-1.32;100.00;97647.63;4402228;32;20064;-70
2021/12/03 04:00:25;;;;;;;5.20;3.08;;;;;;;-1.04;100.00;97683.50;4403507;32;20065;-70
2021/12/03 04:02:52;;;;;;;4.47;2.33;;;;;;;-1.33;100.00;97630.94;4404735;32;20047;-70
2021/12/03 04:05:18;;;;;;;5.10;2.58;;;;;;;-1.20;100.00;97659.13;4412138;32;20060;-70
2021/12/03 04:07:45;;;;;;;3.35;2.53;;;;;;;-1.21;100.00;97676.03;4417332;32;20035;-71
2021/12/03 04:10:12;;;;;;;5.00;2.35;;;;;;;-1.38;100.00;97643.16;4404779;32;20286;-70
2021/12/03 04:12:38;;;;;;;6.80;1.67;;;;;;;-1.46;100.00;97647.63;4418642;32;20418;-70
2021/12/03 04:15:07;;;;;;;3.10;2.10;;;;;;;-1.46;100.00;97652.91;4418856;32;20030;-70
2021/12/03 04:17:35;;;;;;;4.28;2.55;;;;;;;-1.35;100.00;97658.59;4417942;32;20056;-71
2021/12/03 04:20:03;;;;;;;4.75;2.70;;;;;;;-1.24;100.00;97681.72;4417392;32;20359;-71
2021/12/03 04:22:31;;;;;;;3.70;2.25;;;;;;;-1.40;100.00;97666.31;4418711;32;20064;-71
2021/12/03 04:24:59;;;;;;;8.10;2.33;;;;;;;-1.23;100.00;97699.16;4416644;32;20368;-71
2021/12/03 04:27:25;;;;;;;2.62;2.42;;;;;;;-1.24;100.00;97696.75;4416660;32;20090;-71
2021/12/03 04:29:52;;;;;;;2.47;2.05;;;;;;;-1.51;100.00;97673.84;4403724;32;20465;-71
2021/12/03 04:32:19;;;;;;;8.70;2.30;;;;;;;-1.22;100.00;97721.94;4418384;32;20046;-70
2021/12/03 04:34:46;;;;;;;5.03;2.40;;;;;;;-1.24;100.00;97723.97;4418375;32;20035;-70
2021/12/03 04:37:12;;;;;;;4.30;2.92;;;;;;;-1.23;100.00;97736.16;4418425;32;20068;-70
2021/12/03 04:39:39;;;;;;;4.70;2.70;;;;;;;-1.18;100.00;97725.81;4416787;32;20042;-71
2021/12/03 04:42:06;;;;;;;4.03;2.20;;;;;;;-1.27;100.00;97719.09;4418110;32;20076;-71
2021/12/03 04:44:35;;;;;;;6.15;2.45;;;;;;;-1.36;100.00;97730.88;4418437;32;20075;-71
2021/12/03 04:47:02;;;;;;;3.62;2.95;;;;;;;-1.39;100.00;97712.81;4417904;32;20042;-71
2021/12/03 04:49:28;;;;;;;3.92;2.83;;;;;;;-1.32;100.00;97732.13;4418304;32;20043;-72
2021/12/03 04:51:55;;;;;;;6.28;2.67;;;;;;;-2.03;100.00;97593.69;4414445;32;20030;-71
2021/12/03 04:54:22;;;;;;;5.78;2.95;;;;;;;-1.35;100.00;97727.25;4401610;32;20073;-70
2021/12/03 04:56:49;;;;;;;5.40;2.92;;;;;;;-1.65;100.00;97685.44;4402764;32;20040;-70
2021/12/03 04:59:15;;;;;;;7.75;2.80;;;;;;;-1.55;100.00;97696.38;4404937;32;20064;-70
2021/12/03 05:01:42;;;;;;;8.73;3.05;;;;;;;-1.70;100.00;97701.06;4416646;32;20058;-70
2021/12/03 05:04:09;;;;;;;4.93;2.70;;;;;;;-1.67;100.00;97719.12;4416193;32;20039;-70
2021/12/03 05:09:31;;;;;;;8.00;2.20;;;;;;;-1.54;100.00;97747.34;4373523;32;20043;-70
2021/12/03 05:11:59;;;;;;;10.73;2.40;;;;;;;-1.65;100.00;97752.22;4415947;32;20058;-71
2021/12/03 05:14:26;;;;;;;3.60;2.03;;;;;;;-1.70;100.00;97748.56;4417840;32;20035;-70
2021/12/03 05:16:53;;;;;;;2.87;2.17;;;;;;;-2.07;100.00;97714.63;4417831;32;20072;-70
2021/12/03 05:19:20;;;;;;;5.80;2.90;;;;;;;-1.79;100.00;97744.50;4403514;32;20454;-70
2021/12/03 05:21:47;;;;;;;5.43;2.42;;;;;;;-2.11;100.00;97702.06;4415809;32;20037;-70
2021/12/03 05:24:15;;;;;;;3.03;1.95;;;;;;;-1.87;100.00;97748.12;4416086;32;20058;-70
2021/12/03 05:26:43;;;;;;;6.00;3.08;;;;;;;-2.18;100.00;97722.34;4417321;32;20310;-70
2021/12/03 05:29:10;;;;;;;7.00;3.08;;;;;;;-1.95;100.00;97754.41;4417653;32;20064;-71
2021/12/03 05:31:38;;;;;;;8.35;2.87;;;;;;;-1.99;100.00;97736.53;4416774;32;20383;-71
2021/12/03 05:34:05;;;;;;;3.20;2.83;;;;;;;-2.03;100.00;97762.53;4416407;32;20074;-70
2021/12/03 05:36:31;;;;;;;6.35;3.03;;;;;;;-2.24;100.00;97719.47;4417298;32;20031;-70
2021/12/03 05:38:59;;;;;;;4.35;2.42;;;;;;;-2.13;100.00;97741.00;4417936;32;20060;-70
2021/12/03 05:41:25;;;;;;;5.90;3.15;;;;;;;-2.14;100.00;97776.28;4417358;32;20408;-70
2021/12/03 05:43:51;;;;;;;3.35;2.15;;;;;;;-2.44;100.00;97729.13;4415924;32;20060;-71
2021/12/03 05:46:18;;;;;;;4.07;2.20;;;;;;;-2.21;100.00;97771.00;4416809;32;20057;-70
2021/12/03 05:48:44;;;;;;;12.77;3.25;;;;;;;-2.22;100.00;97775.47;4417008;32;20042;-71
2021/12/03 05:51:11;;;;;;;7.87;2.92;;;;;;;-2.26;100.00;97778.72;4417527;32;20041;-70
2021/12/03 05:53:38;;;;;;;5.75;2.58;;;;;;;-2.10;100.00;97788.09;4417560;32;20047;-70
2021/12/03 05:56:04;;;;;;;3.70;2.87;;;;;;;-2.33;100.00;97757.59;4400351;32;20099;-70
2021/12/03 05:58:31;;;;;;;4.03;2.85;;;;;;;-2.35;100.00;97753.53;4416367;32;20487;-70
2021/12/03 06:00:58;;;;;;;8.40;2.78;;;;;;;-2.35;100.00;97753.53;4415865;32;20056;-70
2021/12/03 06:03:25;;;;;;;8.68;2.95;;;;;;;-2.27;100.00;97763.88;4416318;32;20076;-70
2021/12/03 06:05:52;;;;;;;2.35;2.17;;;;;;;-2.06;100.00;97799.84;4416484;32;20433;-70
2021/12/03 06:08:19;;;;;;;8.35;3.20;;;;;;;-2.06;100.00;97815.66;4401587;32;20425;-70
2021/12/03 06:10:45;;;;;;;3.60;2.85;;;;;;;-2.16;100.00;97805.50;4416056;32;20484;-70
2021/12/03 06:13:12;;;;;;;8.20;2.65;;;;;;;-2.03;100.00;97825.84;4414996;32;20050;-71
2021/12/03 06:15:38;;;;;;;6.78;3.05;;;;;;;-2.26;100.00;97790.06;4412242;32;20166;-70
2021/12/03 06:18:05;;;;;;;5.47;3.20;;;;;;;-2.30;100.00;97773.00;4406894;32;20080;-71
2021/12/03 06:20:32;;;;;;;10.07;4.03;;;;;;;-2.28;100.00;97776.25;4416391;32;20456;-70
2021/12/03 06:22:59;;;;;;;7.53;2.47;;;;;;;-1.99;100.00;97820.97;4416793;32;20056;-70
2021/12/03 06:25:26;;;;;;;6.62;2.95;;;;;;;-2.33;100.00;97788.41;4414705;32;20047;-70
2021/12/03 06:27:56;;;;;;;2.03;1.92;;;;;;;-2.13;100.00;97830.69;4415129;32;20046;-70
2021/12/03 06:30:24;;;;;;;5.70;3.03;;;;;;;-2.26;100.00;97848.06;4413186;32;20042;-72
2021/12/03 06:32:51;;;;;;;4.78;3.22;;;;;;;-2.30;100.00;97824.91;4415161;32;20084;-71
2021/12/03 06:35:18;;;;;;;10.35;3.30;;;;;;;-2.49;100.00;97789.56;4415284;32;20050;-71
2021/12/03 06:37:46;;;;;;;7.03;1.70;;;;;;;-2.31;100.00;97845.22;4400657;32;20459;-70
2021/12/03 06:40:19;;;;;;;6.47;2.00;;;;;;;-2.45;100.00;97851.44;4401486;32;20030;-70
2021/12/03 06:42:46;;;;;;;5.35;3.05;;;;;;;-2.48;100.00;97860.53;4400779;32;20039;-71
2021/12/03 06:45:14;;;;;;;5.12;2.97;;;;;;;-2.65;100.00;97807.34;4413947;32;20050;-71
2021/12/03 06:47:40;;;;;;;5.05;3.12;;;;;;;-2.41;100.00;97850.00;4415703;32;20395;-70
2021/12/03 06:50:09;;;;;;;7.43;3.37;;;;;;;-2.39;100.00;97864.63;4414751;32;20068;-70
2021/12/03 06:52:39;;;;;;;5.85;3.47;;;;;;;-2.49;100.00;97855.44;4414358;32;20355;-71
2021/12/03 06:55:09;;;;;;;3.62;3.17;;;;;;;-2.63;100.00;97852.75;4415126;32;20050;-71
2021/12/03 06:57:36;;;;;;;8.95;3.47;;;;;;;-2.54;100.00;97871.84;4413880;32;20090;-71
2021/12/03 07:00:06;;;;;;;4.62;2.92;;;;;;;-2.66;100.00;97842.59;4416432;32;20322;-71
2021/12/03 07:02:32;;;;;;;9.32;3.67;;;;;;;-2.65;100.00;97860.03;4415390;32;20038;-71
2021/12/03 07:04:59;;;;;;;6.82;3.72;;;;;;;-2.56;100.00;97864.12;4402034;32;20092;-71
2021/12/03 07:07:25;;;;;;;4.47;1.90;;;;;;;-2.87;100.00;97822.41;4416091;32;20038;-71
2021/12/03 07:09:52;;;;;;;7.57;4.43;;;;;;;-2.94;100.00;97835.50;4415229;32;20068;-71
2021/12/03 07:12:18;;;;;;;10.70;4.22;;;;;;;-2.68;100.00;97870.97;4415109;32;20068;-71
2021/12/03 07:14:45;;;;;;;12.48;4.22;;;;;;;-2.67;100.00;97872.56;4410203;32;20042;-71
2021/12/03 07:17:11;;;;;;;10.18;4.18;;;;;;;-2.58;100.00;97871.44;4413113;32;20047;-70
2021/12/03 07:19:38;;;;;;;9.23;3.67;;;;;;;-2.62;100.00;97869.38;4412779;32;20322;-70
2021/12/03 07:22:04;;;;;;;10.82;4.60;;;;;;;-2.72;100.00;97884.72;4400556;32;20078;-70
2021/12/03 07:24:31;;;;;;;9.18;4.18;;;;;;;-2.72;100.00;97884.72;4408979;32;20345;-71
2021/12/03 07:26:58;;;;;;;6.35;4.25;;;;;;;-3.02;100.00;97838.28;4401337;32;20152;-71
2021/12/03 07:29:25;;;;;;;12.68;4.28;;;;;;;-2.99;100.00;97850.28;4397406;32;20056;-70
2021/12/03 07:31:51;;;;;;;8.68;3.62;;;;;;;-2.97;100.00;97867.53;4404230;32;20364;-70
2021/12/03 07:34:18;;;;;;;5.60;3.10;;;;;;;-2.74;100.00;97908.62;4397646;32;20406;-69
2021/12/03 07:36:44;;;;;;;6.85;4.50;;;;;;;-2.75;100.00;97922.78;4410380;32;20107;-69
2021/12/03 07:39:11;;;;;;;6.85;4.15;;;;;;;-2.74;100.00;97921.81;4405820;32;20054;-69
2021/12/03 07:41:40;;;;;;;8.77;4.07;;;;;;;-2.98;100.00;97855.34;4419236;32;20057;-69
2021/12/03 07:44:08;;;;;;;10.13;4.53;;;;;;;-2.77;100.00;97909.00;4405839;32;20403;-70
2021/12/03 07:46:35;;;;;;;10.50;3.70;;;;;;;-2.70;100.00;97936.22;4416198;32;20090;-70
2021/12/03 07:49:03;;;;;;;10.40;5.35;;;;;;;-3.07;100.00;97869.66;4414503;32;20080;-69
2021/12/03 07:51:30;;;;;;;8.23;4.97;;;;;;;-2.78;100.00;97923.19;4407826;32;20074;-69
2021/12/03 07:53:56;;;;;;;3.17;2.20;;;;;;;-2.57;100.00;97923.16;4402653;32;20427;-71
2021/12/03 07:56:23;;;;;;;10.98;3.87;;;;;;;-2.60;100.00;97926.16;4402981;32;20031;-70
2021/12/03 07:58:50;;;;;;;8.18;3.20;;;;;;;-2.53;100.00;97930.66;4403148;32;20042;-70
2021/12/03 08:01:16;;;;;;;9.95;4.18;;;;;;;-2.58;100.00;97928.59;4399657;32;20056;-72
2021/12/03 08:03:43;;;;;;;17.42;5.82;;;;;;;-2.92;100.00;97886.22;4402374;32;20432;-71
2021/12/03 08:06:10;;;;;;;11.25;4.95;;;;;;;-2.62;100.00;97914.16;4405159;32;20434;-72
2021/12/03 08:08:38;;;;;;;23.25;8.13;;;;;;;-2.69;100.00;97924.66;4406157;32;20042;-70
2021/12/03 08:11:06;;;;;;;9.27;4.47;;;;;;;-2.70;100.00;97920.41;4410779;32;20101;-71
2021/12/03 08:13:33;;;;;;;18.95;4.53;;;;;;;-2.77;100.00;97903.75;4415991;32;20034;-71
2021/12/03 08:16:01;;;;;;;16.62;5.32;;;;;;;-2.63;100.00;97926.53;4417437;32;20057;-71
2021/12/03 08:18:28;;;;;;;14.32;4.78;;;;;;;-2.96;100.00;97863.06;4417945;32;20060;-70
2021/12/03 08:20:55;;;;;;;10.18;4.72;;;;;;;-2.82;100.00;97885.06;4415605;32;20069;-70
2021/12/03 08:23:21;;;;;;;12.37;4.32;;;;;;;-2.53;100.00;97935.94;4418592;32;20739;-71
2021/12/03 08:25:48;;;;;;;21.62;6.15;;;;;;;-2.85;100.00;97896.78;4402383;32;20360;-71
2021/12/03 08:28:15;;;;;;;24.35;5.45;;;;;;;-2.50;100.00;97927.66;4406362;32;20085;-71
2021/12/03 08:30:41;;;;;;;18.98;3.00;;;;;;;-2.82;100.00;97906.94;4389747;32;20030;-70
2021/12/03 08:33:08;;;;;;;27.85;7.30;;;;;;;-2.51;100.00;97923.38;4399873;32;20039;-71
2021/12/03 08:35:34;;;;;;;29.23;6.97;;;;;;;-2.71;100.00;97886.34;4402847;32;20098;-72
2021/12/03 08:38:01;;;;;;;9.50;4.47;;;;;;;-2.32;100.00;97933.22;4417503;32;20071;-72
2021/12/03 08:40:28;;;;;;;14.82;5.30;;;;;;;-2.23;100.00;97932.06;4417901;32;20432;-71
2021/12/03 08:42:54;;;;;;;5.55;2.75;;;;;;;-2.23;100.00;97937.34;4418627;32;20476;-73
2021/12/03 08:45:21;;;;;;;8.63;3.12;;;;;;;-2.22;100.00;97952.16;4415858;32;20034;-72
2021/12/03 08:47:58;;;;;;;15.05;3.53;;;;;;;-2.11;100.00;97942.06;4405493;32;20035;-73
2021/12/03 08:50:29;;;;;;;24.67;5.10;;;;;;;-2.14;100.00;97956.44;4418152;32;20035;-70
2021/12/03 08:53:20;;;;;;;16.50;4.07;;;;;;;-2.29;100.00;97895.91;4416426;32;20382;-71
2021/12/03 08:55:47;;;;;;;21.08;4.15;;;;;;;-2.01;100.00;97939.88;4401072;32;20031;-72
2021/12/03 08:58:16;;;;;;;9.05;3.30;;;;;;;-1.97;100.00;97927.13;4411961;32;20089;-71
2021/12/03 09:00:43;;;;;;;10.75;3.35;;;;;;;-2.06;100.00;97937.00;4417230;32;20043;-71
2021/12/03 09:03:10;;;;;;;12.30;2.45;;;;;;;-2.36;100.00;97889.81;4415902;32;20051;-72
2021/12/03 09:05:38;;;;;;;17.27;3.92;;;;;;;-2.05;100.00;97933.38;4415481;32;20057;-72
2021/12/03 09:08:04;;;;;;;7.18;2.92;;;;;;;-2.22;100.00;97890.69;4418279;32;20430;-71
2021/12/03 09:10:31;;;;;;;11.73;2.78;;;;;;;-2.09;100.00;97884.66;4417635;32;20030;-71
2021/12/03 09:12:58;;;;;;;13.32;5.10;;;;;;;-2.05;100.00;97880.63;4401064;32;20027;-71
2021/12/03 09:15:40;;;;;;;13.98;4.30;;;;;;;-1.70;100.00;97909.56;4399837;32;20047;-71
2021/12/03 09:23:17;;;;;;;6.78;2.87;;;;;;;-1.83;100.00;97921.69;4409005;32;20064;-70
2021/12/03 09:25:51;;;;;;;7.47;3.25;;;;;;;-1.93;100.00;97910.72;4413944;32;20098;-70
2021/12/03 09:28:17;;;;;;;13.30;3.95;;;;;;;-1.87;100.00;97882.72;4417540;32;20057;-71
2021/12/03 09:30:45;;;;;;;5.40;3.53;;;;;;;-1.54;100.00;97914.47;4409666;32;20108;-70
2021/12/03 09:33:15;;;;;;;6.22;3.60;;;;;;;-1.60;100.00;97925.84;4392906;32;20039;-70
2021/12/03 09:35:46;;;;;;;10.38;2.45;;;;;;;-1.43;100.00;97907.00;4410200;32;20042;-70
2021/12/03 09:38:13;;;;;;;12.82;3.80;;;;;;;-1.44;100.00;97924.66;4409786;32;20050;-69
2021/12/03 09:40:40;;;;;;;3.75;2.45;;;;;;;-1.24;100.00;97906.22;4411810;32;20127;-69
2021/12/03 09:43:07;;;;;;;10.43;3.55;;;;;;;-1.31;100.00;97903.56;4396345;32;20349;-70
2021/12/03 09:45:37;;;;;;;10.15;3.10;;;;;;;-1.47;100.00;97878.38;4412618;32;20097;-70
2021/12/03 09:48:18;;;;;;;12.18;2.28;;;;;;;-1.02;100.00;97929.81;4414875;32;20091;-71
2021/12/03 09:50:45;;;;;;;8.73;2.58;;;;;;;-1.45;100.00;97870.25;4410294;32;20060;-70
2021/12/03 09:53:42;;;;;;;10.45;2.92;;;;;;;-1.28;100.00;97860.09;4412329;32;20093;-71
2021/12/03 09:56:11;;;;;;;8.13;3.50;;;;;;;-1.35;100.00;97880.41;4417117;32;20046;-71
2021/12/03 10:12:40;;;;;;;7.28;3.50;;;;;;;-1.29;100.00;97898.09;4416416;32;20072;-71
2021/12/03 10:34:53;;;;;;;4.30;2.03;;;;;;;-0.59;100.00;97895.03;4393406;32;20078;-70
2021/12/03 10:37:48;;;;;;;8.02;3.00;;;;;;;-0.43;100.00;97921.06;4412075;32;20056;-70
2021/12/03 10:43:14;;;;;;;6.72;2.72;;;;;;;-0.39;100.00;97901.09;4406565;32;20333;-70
2021/12/03 10:46:07;;;;;;;7.50;3.33;;;;;;;-0.63;100.00;97910.50;4416020;32;20042;-71
2021/12/03 11:20:24;;;;;;;9.52;3.50;;;;;;;-0.55;100.00;97896.25;4350838;33;20095;-71
2021/12/03 11:39:43;;;;;;;13.73;4.37;;;;;;;-0.25;100.00;97930.19;4401597;32;20742;-71
2021/12/03 11:57:02;;;;;;;9.35;3.15;;;;;;;0.07;100.00;97887.94;4392240;32;20481;-71
2021/12/03 12:24:50;;;;;;;6.82;2.70;;;;;;;1.14;100.00;97927.06;4408161;32;20042;-70
2021/12/03 12:56:39;;;;;;;10.13;3.75;;;;;;;1.34;100.00;97941.00;4403513;32;20047;-71
2021/12/03 14:05:16;;;;;;;44.80;13.70;;;;;;;0.83;100.00;98005.53;4416894;32;20060;-72
2021/12/03 14:31:34;;;;;;;11.75;4.35;;;;;;;0.79;100.00;98055.50;4358718;32;20048;-73
2021/12/03 14:46:02;;;;;;;15.85;5.65;;;;;;;0.70;100.00;98040.88;4402524;32;20062;-74
2021/12/03 14:57:05;;;;;;;17.27;4.05;;;;;;;0.75;100.00;98072.03;4387600;32;20084;-70
2021/12/03 14:59:33;;;;;;;11.38;4.05;;;;;;;0.83;100.00;98059.38;4393157;32;20060;-72
2021/12/03 15:07:35;;;;;;;15.90;7.60;;;;;;;0.56;100.00;98040.13;4395055;32;20072;-70
2021/12/03 15:10:11;;;;;;;23.52;8.73;;;;;;;0.56;100.00;98028.69;4389829;32;20059;-71
2021/12/03 15:21:13;;;;;;;10.73;4.32;;;;;;;0.60;100.00;98073.09;4404309;32;20490;-73
2021/12/03 15:23:54;;;;;;;13.23;4.12;;;;;;;0.62;100.00;98071.06;4405246;32;20510;-73
2021/12/03 16:04:34;;;;;;;11.57;3.35;;;;;;;0.02;100.00;98094.19;4407781;32;20050;-72
2021/12/03 16:52:02;;;;;;;26.58;7.70;;;;;;;-0.67;100.00;98093.53;4396312;32;20474;-74
2021/12/03 16:54:36;;;;;;;15.00;5.50;;;;;;;-0.59;100.00;98154.16;4416834;32;20458;-74
2021/12/03 16:57:03;;;;;;;9.27;4.07;;;;;;;-0.60;100.00;98147.25;4401554;32;20540;-75
2021/12/03 16:59:31;;;;;;;14.35;5.70;;;;;;;-0.76;100.00;98146.59;4406973;32;20064;-73
2021/12/03 17:02:04;;;;;;;19.73;5.95;;;;;;;-0.76;100.00;98136.00;4413723;32;20082;-73
2021/12/03 17:13:01;;;;;;;10.90;4.32;;;;;;;-0.95;100.00;98144.69;4370227;32;20381;-70
2021/12/03 17:32:19;;;;;;;18.52;6.57;;;;;;;-1.16;100.00;98137.69;4365921;32;20082;-70
2021/12/03 17:56:12;;;;;;;6.70;4.60;;;;;;;-1.80;100.00;98105.22;4368572;32;20055;-69
2021/12/03 17:58:44;;;;;;;15.23;5.50;;;;;;;-1.42;100.00;98159.47;4374320;32;20099;-70
2021/12/03 18:03:52;;;;;;;16.75;5.80;;;;;;;-1.47;100.00;98160.88;4409442;32;20371;-70
2021/12/03 18:55:42;;;;;;;20.83;5.85;;;;;;;-1.58;100.00;98164.06;4409989;32;20088;-70
2021/12/03 18:58:09;;;;;;;13.10;5.28;;;;;;;-1.84;100.00;98125.87;4414035;32;20064;-70
2021/12/03 19:00:42;;;;;;;30.25;5.43;;;;;;;-1.98;100.00;98124.16;4410543;32;20404;-70
2021/12/03 19:03:36;;;;;;;19.95;5.72;;;;;;;-1.95;100.00;98131.69;4410705;32;20042;-71
2021/12/03 19:06:16;;;;;;;16.35;5.25;;;;;;;-1.59;100.00;98170.34;4405043;32;20392;-69
2021/12/03 19:11:39;;;;;;;11.23;5.03;;;;;;;-1.77;100.00;98172.63;4413679;32;20384;-69
2021/12/03 19:14:07;;;;;;;10.82;3.78;;;;;;;-1.81;100.00;98160.84;4415073;32;20058;-70
2021/12/03 19:16:35;;;;;;;14.15;5.78;;;;;;;-2.07;100.00;98131.41;4406754;32;20072;-71
2021/12/03 19:19:04;;;;;;;10.23;4.75;;;;;;;-1.85;100.00;98161.22;4401246;32;20072;-71